sensor_id;sensor_type;location;lat;lon;timestamp;pressure;altitude;pressure_sealevel;temperature;humidity
49072;BME280;74284;52.610;10.236;2024-03-29T00:00:19;99117.56;;;8.80;57.43
49072;BME280;74284;52.610;10.236;2024-03-29T00:02:44;99115.03;;;8.79;57.34
49072;BME280;74284;52.610;10.236;2024-03-29T00:05:10;99113.34;;;8.63;57.56
49072;BME280;74284;52.610;10.236;2024-03-29T00:07:35;99116.84;;;8.64;57.65
49072;BME280;74284;52.610;10.236;2024-03-29T00:10:00;99112.69;;;8.60;57.62
49072;BME280;74284;52.610;10.236;2024-03-29T00:12:26;99102.97;;;8.60;57.87
49072;BME280;74284;52.610;10.236;2024-03-29T00:14:51;99100.22;;;8.62;57.96
49072;BME280;74284;52.610;10.236;2024-03-29T00:17:16;99102.69;;;8.65;57.51
49072;BME280;74284;52.610;10.236;2024-03-29T00:19:43;99105.59;;;8.60;57.71
49072;BME280;74284;52.610;10.236;2024-03-29T00:22:08;99097.97;;;8.56;57.79
49072;BME280;74284;52.610;10.236;2024-03-29T00:24:34;99096.34;;;8.53;57.76
49072;BME280;74284;52.610;10.236;2024-03-29T00:26:59;99092.97;;;8.51;57.92
49072;BME280;74284;52.610;10.236;2024-03-29T00:29:24;99088.63;;;8.50;57.90
49072;BME280;74284;52.610;10.236;2024-03-29T00:31:52;99096.00;;;8.45;57.86
49072;BME280;74284;52.610;10.236;2024-03-29T00:34:17;99094.56;;;8.39;58.42
49072;BME280;74284;52.610;10.236;2024-03-29T00:36:42;99091.00;;;8.40;57.94
49072;BME280;74284;52.610;10.236;2024-03-29T00:39:07;99098.91;;;8.40;57.65
49072;BME280;74284;52.610;10.236;2024-03-29T00:41:36;99095.78;;;8.34;58.05
49072;BME280;74284;52.610;10.236;2024-03-29T00:44:01;99098.69;;;8.29;58.31
49072;BME280;74284;52.610;10.236;2024-03-29T00:46:26;99095.78;;;8.34;57.96
49072;BME280;74284;52.610;10.236;2024-03-29T00:48:52;99097.41;;;8.36;58.13
49072;BME280;74284;52.610;10.236;2024-03-29T00:51:17;99103.59;;;8.35;58.07
49072;BME280;74284;52.610;10.236;2024-03-29T00:53:42;99102.41;;;8.27;57.98
49072;BME280;74284;52.610;10.236;2024-03-29T00:56:08;99099.56;;;8.30;57.99
49072;BME280;74284;52.610;10.236;2024-03-29T00:58:33;99099.47;;;8.31;57.64
49072;BME280;74284;52.610;10.236;2024-03-29T01:00:58;99105.22;;;8.24;58.10
49072;BME280;74284;52.610;10.236;2024-03-29T01:03:23;99100.94;;;8.21;57.93
49072;BME280;74284;52.610;10.236;2024-03-29T01:05:49;99108.81;;;8.23;57.81
49072;BME280;74284;52.610;10.236;2024-03-29T01:08:14;99103.31;;;8.26;57.82
49072;BME280;74284;52.610;10.236;2024-03-29T01:10:40;99103.13;;;8.29;57.99
49072;BME280;74284;52.610;10.236;2024-03-29T01:13:05;99103.53;;;8.23;58.05
49072;BME280;74284;52.610;10.236;2024-03-29T01:15:30;99110.31;;;8.27;57.58
49072;BME280;74284;52.610;10.236;2024-03-29T01:17:55;99106.72;;;8.28;57.58
49072;BME280;74284;52.610;10.236;2024-03-29T01:20:21;99114.44;;;8.31;57.17
49072;BME280;74284;52.610;10.236;2024-03-29T01:22:46;99109.94;;;8.33;57.11
49072;BME280;74284;52.610;10.236;2024-03-29T01:25:11;99112.03;;;8.28;57.16
49072;BME280;74284;52.610;10.236;2024-03-29T01:27:38;99109.53;;;8.10;57.62
49072;BME280;74284;52.610;10.236;2024-03-29T01:30:04;99112.66;;;8.17;57.80
49072;BME280;74284;52.610;10.236;2024-03-29T01:32:29;99119.09;;;8.13;57.65
49072;BME280;74284;52.610;10.236;2024-03-29T01:34:55;99115.19;;;8.04;57.88
49072;BME280;74284;52.610;10.236;2024-03-29T01:37:20;99117.53;;;7.95;58.01
49072;BME280;74284;52.610;10.236;2024-03-29T01:39:45;99117.53;;;7.95;58.29
49072;BME280;74284;52.610;10.236;2024-03-29T01:42:10;99118.94;;;8.00;58.23
49072;BME280;74284;52.610;10.236;2024-03-29T01:44:36;99117.97;;;7.87;58.48
49072;BME280;74284;52.610;10.236;2024-03-29T01:47:01;99113.44;;;7.89;58.16
49072;BME280;74284;52.610;10.236;2024-03-29T01:49:27;99119.22;;;7.96;58.25
49072;BME280;74284;52.610;10.236;2024-03-29T01:51:52;99115.53;;;7.98;58.09
49072;BME280;74284;52.610;10.236;2024-03-29T01:54:18;99107.81;;;7.95;57.66
49072;BME280;74284;52.610;10.236;2024-03-29T01:56:43;99107.59;;;7.84;58.38
49072;BME280;74284;52.610;10.236;2024-03-29T01:59:14;99121.22;;;7.76;58.53
49072;BME280;74284;52.610;10.236;2024-03-29T02:01:40;99120.31;;;7.77;58.21
49072;BME280;74284;52.610;10.236;2024-03-29T02:04:06;99124.91;;;7.74;58.18
49072;BME280;74284;52.610;10.236;2024-03-29T02:06:32;99124.13;;;7.72;58.37
49072;BME280;74284;52.610;10.236;2024-03-29T02:08:57;99121.69;;;7.69;58.38
49072;BME280;74284;52.610;10.236;2024-03-29T02:11:22;99120.31;;;7.61;58.94
49072;BME280;74284;52.610;10.236;2024-03-29T02:13:49;99122.66;;;7.52;58.87
49072;BME280;74284;52.610;10.236;2024-03-29T02:16:15;99124.19;;;7.40;58.84
49072;BME280;74284;52.610;10.236;2024-03-29T02:18:40;99127.75;;;7.39;59.18
49072;BME280;74284;52.610;10.236;2024-03-29T02:21:06;99118.25;;;7.36;59.27
49072;BME280;74284;52.610;10.236;2024-03-29T02:23:32;99128.63;;;7.39;59.23
49072;BME280;74284;52.610;10.236;2024-03-29T02:26:01;99135.00;;;7.35;59.23
49072;BME280;74284;52.610;10.236;2024-03-29T02:28:26;99139.53;;;7.33;59.42
49072;BME280;74284;52.610;10.236;2024-03-29T02:30:52;99151.50;;;7.23;60.08
49072;BME280;74284;52.610;10.236;2024-03-29T02:33:17;99157.78;;;7.21;59.84
49072;BME280;74284;52.610;10.236;2024-03-29T02:35:43;99159.72;;;7.17;60.30
49072;BME280;74284;52.610;10.236;2024-03-29T02:38:08;99160.50;;;7.19;59.86
49072;BME280;74284;52.610;10.236;2024-03-29T02:40:33;99157.88;;;7.19;60.12
49072;BME280;74284;52.610;10.236;2024-03-29T02:42:59;99158.03;;;7.16;60.34
49072;BME280;74284;52.610;10.236;2024-03-29T02:45:24;99161.63;;;7.15;60.07
49072;BME280;74284;52.610;10.236;2024-03-29T02:47:49;99161.53;;;7.16;59.86
49072;BME280;74284;52.610;10.236;2024-03-29T02:50:15;99155.41;;;7.16;59.96
49072;BME280;74284;52.610;10.236;2024-03-29T02:52:41;99156.25;;;7.16;59.97
49072;BME280;74284;52.610;10.236;2024-03-29T02:55:07;99157.56;;;7.25;60.65
49072;BME280;74284;52.610;10.236;2024-03-29T02:57:32;99157.97;;;7.18;59.79
49072;BME280;74284;52.610;10.236;2024-03-29T02:59:58;99153.97;;;7.10;59.92
49072;BME280;74284;52.610;10.236;2024-03-29T03:02:23;99137.00;;;6.99;60.54
49072;BME280;74284;52.610;10.236;2024-03-29T03:04:48;99130.56;;;7.04;60.45
49072;BME280;74284;52.610;10.236;2024-03-29T03:07:14;99127.59;;;7.10;59.95
49072;BME280;74284;52.610;10.236;2024-03-29T03:09:57;99111.16;;;7.05;60.20
49072;BME280;74284;52.610;10.236;2024-03-29T03:12:42;99103.75;;;7.12;59.91
49072;BME280;74284;52.610;10.236;2024-03-29T03:15:08;99087.69;;;7.01;60.65
49072;BME280;74284;52.610;10.236;2024-03-29T03:17:33;99097.19;;;7.03;60.37
49072;BME280;74284;52.610;10.236;2024-03-29T03:19:58;99080.97;;;7.11;60.16
49072;BME280;74284;52.610;10.236;2024-03-29T03:22:24;99086.91;;;7.14;60.31
49072;BME280;74284;52.610;10.236;2024-03-29T03:24:49;99089.22;;;7.36;60.31
49072;BME280;74284;52.610;10.236;2024-03-29T03:27:15;99087.03;;;7.29;59.69
49072;BME280;74284;52.610;10.236;2024-03-29T03:29:40;99094.00;;;7.30;59.41
49072;BME280;74284;52.610;10.236;2024-03-29T03:32:06;99091.19;;;7.33;59.40
49072;BME280;74284;52.610;10.236;2024-03-29T03:34:32;99101.31;;;7.25;60.14
49072;BME280;74284;52.610;10.236;2024-03-29T03:36:57;99104.59;;;7.12;60.63
49072;BME280;74284;52.610;10.236;2024-03-29T03:39:22;99107.38;;;7.27;60.11
49072;BME280;74284;52.610;10.236;2024-03-29T03:41:48;99092.03;;;7.33;59.75
49072;BME280;74284;52.610;10.236;2024-03-29T03:44:14;99087.78;;;7.31;59.96
49072;BME280;74284;52.610;10.236;2024-03-29T03:46:39;99099.19;;;7.31;59.89
49072;BME280;74284;52.610;10.236;2024-03-29T03:49:04;99098.06;;;7.35;59.80
49072;BME280;74284;52.610;10.236;2024-03-29T03:51:29;99096.03;;;7.40;59.88
49072;BME280;74284;52.610;10.236;2024-03-29T03:53:55;99103.44;;;7.34;59.95
49072;BME280;74284;52.610;10.236;2024-03-29T03:56:20;99099.69;;;7.38;59.82
49072;BME280;74284;52.610;10.236;2024-03-29T03:58:45;99094.84;;;7.30;60.56
49072;BME280;74284;52.610;10.236;2024-03-29T04:01:11;99102.41;;;7.36;59.93
49072;BME280;74284;52.610;10.236;2024-03-29T04:03:36;99100.09;;;7.46;59.82
49072;BME280;74284;52.610;10.236;2024-03-29T04:06:04;99110.13;;;7.55;59.32
49072;BME280;74284;52.610;10.236;2024-03-29T04:08:29;99113.78;;;7.53;59.38
49072;BME280;74284;52.610;10.236;2024-03-29T04:10:55;99101.28;;;7.56;59.66
49072;BME280;74284;52.610;10.236;2024-03-29T04:13:20;99096.56;;;7.61;59.48
49072;BME280;74284;52.610;10.236;2024-03-29T04:15:45;99094.25;;;7.71;59.03
49072;BME280;74284;52.610;10.236;2024-03-29T04:18:10;99088.34;;;7.82;58.72
49072;BME280;74284;52.610;10.236;2024-03-29T04:20:36;99083.28;;;7.93;58.49
49072;BME280;74284;52.610;10.236;2024-03-29T04:23:04;99088.00;;;8.02;58.25
49072;BME280;74284;52.610;10.236;2024-03-29T04:25:29;99096.97;;;8.00;58.16
49072;BME280;74284;52.610;10.236;2024-03-29T04:27:54;99108.78;;;8.08;57.95
49072;BME280;74284;52.610;10.236;2024-03-29T04:30:20;99106.03;;;8.10;58.07
49072;BME280;74284;52.610;10.236;2024-03-29T04:32:45;99104.16;;;8.12;57.33
49072;BME280;74284;52.610;10.236;2024-03-29T04:35:10;99120.78;;;8.14;57.42
49072;BME280;74284;52.610;10.236;2024-03-29T04:37:36;99114.38;;;8.18;57.52
49072;BME280;74284;52.610;10.236;2024-03-29T04:40:01;99119.09;;;8.27;57.37
49072;BME280;74284;52.610;10.236;2024-03-29T04:42:28;99101.91;;;8.20;57.27
49072;BME280;74284;52.610;10.236;2024-03-29T04:44:53;99097.84;;;8.29;57.03
49072;BME280;74284;52.610;10.236;2024-03-29T04:47:19;99094.09;;;8.33;56.81
49072;BME280;74284;52.610;10.236;2024-03-29T04:49:44;99111.75;;;8.32;57.18
49072;BME280;74284;52.610;10.236;2024-03-29T04:52:09;99104.84;;;8.44;56.71
49072;BME280;74284;52.610;10.236;2024-03-29T04:54:34;99107.31;;;8.47;56.43
49072;BME280;74284;52.610;10.236;2024-03-29T04:57:01;99112.19;;;8.53;56.59
49072;BME280;74284;52.610;10.236;2024-03-29T04:59:34;99116.00;;;8.49;56.54
49072;BME280;74284;52.610;10.236;2024-03-29T05:01:59;99121.94;;;8.53;56.46
49072;BME280;74284;52.610;10.236;2024-03-29T05:04:25;99109.38;;;8.56;56.13
49072;BME280;74284;52.610;10.236;2024-03-29T05:06:57;99120.41;;;8.49;56.28
49072;BME280;74284;52.610;10.236;2024-03-29T05:09:24;99121.94;;;8.53;55.59
49072;BME280;74284;52.610;10.236;2024-03-29T05:11:50;99133.72;;;8.61;56.01
49072;BME280;74284;52.610;10.236;2024-03-29T05:14:16;99144.41;;;8.74;55.06
49072;BME280;74284;52.610;10.236;2024-03-29T05:16:44;99153.09;;;8.62;55.17
49072;BME280;74284;52.610;10.236;2024-03-29T05:19:10;99161.69;;;8.80;55.23
49072;BME280;74284;52.610;10.236;2024-03-29T05:21:35;99155.13;;;8.87;55.11
49072;BME280;74284;52.610;10.236;2024-03-29T05:24:00;99148.47;;;8.80;55.04
49072;BME280;74284;52.610;10.236;2024-03-29T05:26:26;99154.88;;;8.76;55.37
49072;BME280;74284;52.610;10.236;2024-03-29T05:28:51;99164.63;;;8.89;55.04
49072;BME280;74284;52.610;10.236;2024-03-29T05:31:18;99152.38;;;8.88;54.66
49072;BME280;74284;52.610;10.236;2024-03-29T05:33:44;99162.84;;;9.04;54.36
49072;BME280;74284;52.610;10.236;2024-03-29T05:36:10;99165.22;;;8.95;54.29
49072;BME280;74284;52.610;10.236;2024-03-29T05:38:38;99169.28;;;9.00;54.50
49072;BME280;74284;52.610;10.236;2024-03-29T05:41:04;99180.69;;;9.01;54.16
49072;BME280;74284;52.610;10.236;2024-03-29T05:43:29;99198.00;;;8.92;54.27
49072;BME280;74284;52.610;10.236;2024-03-29T05:45:54;99198.94;;;9.05;53.90
49072;BME280;74284;52.610;10.236;2024-03-29T05:48:20;99200.53;;;8.93;54.29
49072;BME280;74284;52.610;10.236;2024-03-29T05:50:45;99197.81;;;9.09;54.03
49072;BME280;74284;52.610;10.236;2024-03-29T05:53:10;99199.69;;;9.07;54.03
49072;BME280;74284;52.610;10.236;2024-03-29T05:55:36;99193.53;;;9.21;53.63
49072;BME280;74284;52.610;10.236;2024-03-29T05:58:01;99207.59;;;9.22;53.54
49072;BME280;74284;52.610;10.236;2024-03-29T06:00:27;99219.16;;;9.06;54.08
49072;BME280;74284;52.610;10.236;2024-03-29T06:02:53;99222.34;;;9.26;53.51
49072;BME280;74284;52.610;10.236;2024-03-29T06:05:18;99212.72;;;9.10;54.26
49072;BME280;74284;52.610;10.236;2024-03-29T06:07:43;99226.78;;;9.25;53.62
49072;BME280;74284;52.610;10.236;2024-03-29T06:10:09;99244.19;;;9.29;54.15
49072;BME280;74284;52.610;10.236;2024-03-29T06:12:35;99244.56;;;9.37;53.68
49072;BME280;74284;52.610;10.236;2024-03-29T06:15:04;99245.22;;;9.41;53.56
49072;BME280;74284;52.610;10.236;2024-03-29T06:17:48;99250.00;;;9.49;53.91
49072;BME280;74284;52.610;10.236;2024-03-29T06:20:13;99252.88;;;9.46;54.13
49072;BME280;74284;52.610;10.236;2024-03-29T06:22:38;99252.94;;;9.44;54.22
49072;BME280;74284;52.610;10.236;2024-03-29T06:25:04;99258.06;;;9.47;54.53
49072;BME280;74284;52.610;10.236;2024-03-29T06:27:32;99267.91;;;9.45;54.37
49072;BME280;74284;52.610;10.236;2024-03-29T06:29:58;99273.28;;;9.43;55.08
49072;BME280;74284;52.610;10.236;2024-03-29T06:32:24;99286.63;;;9.42;55.43
49072;BME280;74284;52.610;10.236;2024-03-29T06:34:49;99289.28;;;9.28;56.65
49072;BME280;74284;52.610;10.236;2024-03-29T06:37:15;99291.91;;;9.28;57.11
49072;BME280;74284;52.610;10.236;2024-03-29T06:39:40;99281.34;;;9.28;58.59
49072;BME280;74284;52.610;10.236;2024-03-29T06:42:07;99255.53;;;9.31;59.31
49072;BME280;74284;52.610;10.236;2024-03-29T06:44:32;99267.72;;;9.19;60.70
49072;BME280;74284;52.610;10.236;2024-03-29T06:46:58;99288.03;;;9.05;61.59
49072;BME280;74284;52.610;10.236;2024-03-29T06:49:23;99291.53;;;9.19;61.79
49072;BME280;74284;52.610;10.236;2024-03-29T06:51:48;99287.94;;;9.06;62.58
49072;BME280;74284;52.610;10.236;2024-03-29T06:54:14;99286.53;;;9.29;62.29
49072;BME280;74284;52.610;10.236;2024-03-29T06:56:39;99288.31;;;9.29;62.97
49072;BME280;74284;52.610;10.236;2024-03-29T06:59:04;99281.34;;;9.13;63.30
49072;BME280;74284;52.610;10.236;2024-03-29T07:01:30;99261.88;;;9.14;64.09
49072;BME280;74284;52.610;10.236;2024-03-29T07:03:55;99261.75;;;9.16;63.86
49072;BME280;74284;52.610;10.236;2024-03-29T07:06:21;99262.13;;;9.24;64.74
49072;BME280;74284;52.610;10.236;2024-03-29T07:08:46;99252.69;;;9.34;64.25
49072;BME280;74284;52.610;10.236;2024-03-29T07:11:12;99256.75;;;9.26;65.47
49072;BME280;74284;52.610;10.236;2024-03-29T07:13:37;99238.59;;;9.34;65.32
49072;BME280;74284;52.610;10.236;2024-03-29T07:16:03;99247.31;;;9.36;65.01
49072;BME280;74284;52.610;10.236;2024-03-29T07:18:29;99250.81;;;9.36;65.50
49072;BME280;74284;52.610;10.236;2024-03-29T07:20:54;99248.72;;;9.41;66.16
49072;BME280;74284;52.610;10.236;2024-03-29T07:23:20;99244.94;;;9.46;65.82
49072;BME280;74284;52.610;10.236;2024-03-29T07:25:57;99246.22;;;9.53;67.72
49072;BME280;74284;52.610;10.236;2024-03-29T07:28:22;99252.94;;;9.58;65.89
49072;BME280;74284;52.610;10.236;2024-03-29T07:30:48;99250.00;;;9.63;65.82
49072;BME280;74284;52.610;10.236;2024-03-29T07:33:15;99237.06;;;9.44;67.18
49072;BME280;74284;52.610;10.236;2024-03-29T07:35:40;99232.28;;;9.36;67.27
49072;BME280;74284;52.610;10.236;2024-03-29T07:38:06;99236.53;;;9.25;68.58
49072;BME280;74284;52.610;10.236;2024-03-29T07:40:32;99229.25;;;9.28;68.85
49072;BME280;74284;52.610;10.236;2024-03-29T07:42:57;99227.28;;;9.32;68.71
49072;BME280;74284;52.610;10.236;2024-03-29T07:45:24;99225.47;;;9.32;68.11
49072;BME280;74284;52.610;10.236;2024-03-29T07:47:50;99222.28;;;9.13;69.69
49072;BME280;74284;52.610;10.236;2024-03-29T07:50:18;99221.91;;;9.05;70.27
49072;BME280;74284;52.610;10.236;2024-03-29T07:52:47;99205.19;;;9.04;73.00
49072;BME280;74284;52.610;10.236;2024-03-29T07:55:13;99200.75;;;8.90;71.24
49072;BME280;74284;52.610;10.236;2024-03-29T07:57:38;99192.31;;;8.98;73.19
49072;BME280;74284;52.610;10.236;2024-03-29T08:00:04;99187.19;;;8.81;72.24
49072;BME280;74284;52.610;10.236;2024-03-29T08:02:31;99169.06;;;8.89;73.27
49072;BME280;74284;52.610;10.236;2024-03-29T08:04:57;99164.84;;;9.01;71.66
49072;BME280;74284;52.610;10.236;2024-03-29T08:07:22;99160.56;;;8.98;72.82
49072;BME280;74284;52.610;10.236;2024-03-29T08:09:49;99164.72;;;9.02;72.91
49072;BME280;74284;52.610;10.236;2024-03-29T08:12:14;99158.47;;;9.03;72.81
49072;BME280;74284;52.610;10.236;2024-03-29T08:14:40;99159.88;;;8.80;74.28
49072;BME280;74284;52.610;10.236;2024-03-29T08:17:05;99154.34;;;9.13;72.80
49072;BME280;74284;52.610;10.236;2024-03-29T08:19:35;99157.94;;;8.98;73.80
49072;BME280;74284;52.610;10.236;2024-03-29T08:22:00;99146.75;;;9.07;75.46
49072;BME280;74284;52.610;10.236;2024-03-29T08:24:26;99154.22;;;9.15;73.77
49072;BME280;74284;52.610;10.236;2024-03-29T08:26:52;99149.06;;;9.40;74.70
49072;BME280;74284;52.610;10.236;2024-03-29T08:29:17;99150.44;;;9.19;73.80
49072;BME280;74284;52.610;10.236;2024-03-29T08:31:42;99132.59;;;9.23;73.37
49072;BME280;74284;52.610;10.236;2024-03-29T08:34:07;99143.09;;;9.10;74.49
49072;BME280;74284;52.610;10.236;2024-03-29T08:36:36;99138.97;;;9.33;73.48
49072;BME280;74284;52.610;10.236;2024-03-29T08:39:01;99137.56;;;9.27;73.84
49072;BME280;74284;52.610;10.236;2024-03-29T08:41:26;99122.84;;;9.23;74.96
49072;BME280;74284;52.610;10.236;2024-03-29T08:43:52;99116.59;;;9.51;73.40
49072;BME280;74284;52.610;10.236;2024-03-29T08:46:17;99114.84;;;9.37;74.21
49072;BME280;74284;52.610;10.236;2024-03-29T08:48:42;99112.09;;;9.39;74.59
49072;BME280;74284;52.610;10.236;2024-03-29T08:51:09;99106.84;;;9.52;74.23
49072;BME280;74284;52.610;10.236;2024-03-29T08:53:35;99106.19;;;9.48;74.07
49072;BME280;74284;52.610;10.236;2024-03-29T08:56:00;99102.66;;;9.62;73.85
49072;BME280;74284;52.610;10.236;2024-03-29T08:58:25;99107.22;;;9.60;74.20
49072;BME280;74284;52.610;10.236;2024-03-29T09:00:54;99118.63;;;9.87;72.50
49072;BME280;74284;52.610;10.236;2024-03-29T09:03:23;99140.19;;;10.08;71.52
49072;BME280;74284;52.610;10.236;2024-03-29T09:05:49;99142.53;;;10.13;72.03
49072;BME280;74284;52.610;10.236;2024-03-29T09:08:15;99150.34;;;10.14;71.33
49072;BME280;74284;52.610;10.236;2024-03-29T09:10:40;99166.41;;;10.26;71.75
49072;BME280;74284;52.610;10.236;2024-03-29T09:13:05;99175.66;;;10.33;70.58
49072;BME280;74284;52.610;10.236;2024-03-29T09:15:32;99165.78;;;10.35;70.59
49072;BME280;74284;52.610;10.236;2024-03-29T09:17:57;99160.16;;;10.52;70.27
49072;BME280;74284;52.610;10.236;2024-03-29T09:20:26;99162.84;;;10.65;69.63
49072;BME280;74284;52.610;10.236;2024-03-29T09:22:52;99164.31;;;10.56;69.79
49072;BME280;74284;52.610;10.236;2024-03-29T09:25:17;99164.97;;;10.73;69.42
49072;BME280;74284;52.610;10.236;2024-03-29T09:27:45;99142.66;;;10.75;68.50
49072;BME280;74284;52.610;10.236;2024-03-29T09:30:11;99135.22;;;10.80;69.18
49072;BME280;74284;52.610;10.236;2024-03-29T09:32:36;99135.34;;;10.79;69.38
49072;BME280;74284;52.610;10.236;2024-03-29T09:35:02;99138.50;;;10.84;69.27
49072;BME280;74284;52.610;10.236;2024-03-29T09:37:27;99137.16;;;10.78;68.81
49072;BME280;74284;52.610;10.236;2024-03-29T09:39:53;99131.00;;;10.78;69.10
49072;BME280;74284;52.610;10.236;2024-03-29T09:42:21;99126.03;;;10.60;69.00
49072;BME280;74284;52.610;10.236;2024-03-29T09:44:50;99119.03;;;10.72;68.68
49072;BME280;74284;52.610;10.236;2024-03-29T09:47:17;99121.97;;;10.80;67.79
49072;BME280;74284;52.610;10.236;2024-03-29T09:49:44;99118.56;;;10.91;67.09
49072;BME280;74284;52.610;10.236;2024-03-29T09:52:10;99111.75;;;11.00;66.93
49072;BME280;74284;52.610;10.236;2024-03-29T09:54:36;99118.78;;;11.25;65.22
49072;BME280;74284;52.610;10.236;2024-03-29T09:57:01;99117.38;;;11.32;64.74
49072;BME280;74284;52.610;10.236;2024-03-29T09:59:27;99118.41;;;11.42;64.69
49072;BME280;74284;52.610;10.236;2024-03-29T10:01:55;99104.88;;;11.58;64.26
49072;BME280;74284;52.610;10.236;2024-03-29T10:04:21;99103.25;;;11.68;63.99
49072;BME280;74284;52.610;10.236;2024-03-29T10:06:48;99105.44;;;11.50;64.20
49072;BME280;74284;52.610;10.236;2024-03-29T10:09:19;99096.25;;;11.78;63.30
49072;BME280;74284;52.610;10.236;2024-03-29T10:11:46;99095.84;;;11.95;62.78
49072;BME280;74284;52.610;10.236;2024-03-29T10:14:12;99096.41;;;11.88;62.99
49072;BME280;74284;52.610;10.236;2024-03-29T10:16:37;99105.13;;;11.90;63.21
49072;BME280;74284;52.610;10.236;2024-03-29T10:19:03;99100.38;;;12.29;61.96
49072;BME280;74284;52.610;10.236;2024-03-29T10:21:28;99105.59;;;12.41;61.34
49072;BME280;74284;52.610;10.236;2024-03-29T10:23:54;99106.72;;;12.50;62.08
49072;BME280;74284;52.610;10.236;2024-03-29T10:26:19;99112.66;;;12.54;61.33
49072;BME280;74284;52.610;10.236;2024-03-29T10:28:45;99120.72;;;12.52;61.04
49072;BME280;74284;52.610;10.236;2024-03-29T10:31:11;99112.28;;;12.58;62.05
49072;BME280;74284;52.610;10.236;2024-03-29T10:33:39;99114.00;;;12.82;61.10
49072;BME280;74284;52.610;10.236;2024-03-29T10:36:04;99110.59;;;13.13;60.25
49072;BME280;74284;52.610;10.236;2024-03-29T10:38:31;99101.03;;;12.88;60.76
49072;BME280;74284;52.610;10.236;2024-03-29T10:40:56;99104.66;;;12.98;60.27
49072;BME280;74284;52.610;10.236;2024-03-29T10:43:23;99100.69;;;12.93;60.34
49072;BME280;74284;52.610;10.236;2024-03-29T10:45:49;99103.69;;;13.11;60.50
49072;BME280;74284;52.610;10.236;2024-03-29T10:48:21;99111.09;;;12.96;60.77
49072;BME280;74284;52.610;10.236;2024-03-29T10:50:48;99110.34;;;12.94;60.75
49072;BME280;74284;52.610;10.236;2024-03-29T10:53:16;99108.44;;;12.96;60.62
49072;BME280;74284;52.610;10.236;2024-03-29T10:55:41;99116.59;;;13.38;59.80
49072;BME280;74284;52.610;10.236;2024-03-29T10:58:10;99119.75;;;13.20;60.31
49072;BME280;74284;52.610;10.236;2024-03-29T11:00:46;99113.03;;;13.05;60.28
49072;BME280;74284;52.610;10.236;2024-03-29T11:03:18;99115.56;;;12.95;60.25
49072;BME280;74284;52.610;10.236;2024-03-29T11:05:48;99124.63;;;13.15;60.49
49072;BME280;74284;52.610;10.236;2024-03-29T11:08:17;99117.72;;;13.02;60.21
49072;BME280;74284;52.610;10.236;2024-03-29T11:10:45;99108.69;;;12.82;60.94
49072;BME280;74284;52.610;10.236;2024-03-29T11:13:32;99127.56;;;12.90;60.58
49072;BME280;74284;52.610;10.236;2024-03-29T11:15:59;99123.91;;;12.80;61.21
49072;BME280;74284;52.610;10.236;2024-03-29T11:18:26;99126.56;;;13.02;60.64
49072;BME280;74284;52.610;10.236;2024-03-29T11:20:52;99138.56;;;12.85;60.92
49072;BME280;74284;52.610;10.236;2024-03-29T11:23:20;99125.09;;;13.32;59.90
49072;BME280;74284;52.610;10.236;2024-03-29T11:25:49;99133.50;;;13.48;59.24
49072;BME280;74284;52.610;10.236;2024-03-29T11:28:21;99125.88;;;13.43;59.06
49072;BME280;74284;52.610;10.236;2024-03-29T11:30:49;99137.50;;;13.54;59.61
49072;BME280;74284;52.610;10.236;2024-03-29T11:33:31;99136.25;;;13.69;58.83
49072;BME280;74284;52.610;10.236;2024-03-29T11:36:11;99138.41;;;13.75;58.80
49072;BME280;74284;52.610;10.236;2024-03-29T11:38:37;99141.72;;;13.67;59.01
49072;BME280;74284;52.610;10.236;2024-03-29T11:41:09;99144.06;;;13.49;59.95
49072;BME280;74284;52.610;10.236;2024-03-29T11:43:35;99143.53;;;13.56;59.15
49072;BME280;74284;52.610;10.236;2024-03-29T11:46:03;99155.28;;;13.64;59.64
49072;BME280;74284;52.610;10.236;2024-03-29T11:48:30;99155.78;;;13.58;59.57
49072;BME280;74284;52.610;10.236;2024-03-29T11:50:59;99148.53;;;13.38;60.15
49072;BME280;74284;52.610;10.236;2024-03-29T11:53:25;99143.78;;;13.53;59.44
49072;BME280;74284;52.610;10.236;2024-03-29T11:55:53;99139.09;;;13.88;58.50
49072;BME280;74284;52.610;10.236;2024-03-29T11:58:22;99126.56;;;14.21;58.23
49072;BME280;74284;52.610;10.236;2024-03-29T12:00:49;99129.47;;;14.60;57.85
49072;BME280;74284;52.610;10.236;2024-03-29T12:03:16;99129.78;;;14.87;56.79
49072;BME280;74284;52.610;10.236;2024-03-29T12:05:46;99128.09;;;14.86;56.65
49072;BME280;74284;52.610;10.236;2024-03-29T12:08:12;99132.75;;;14.94;57.13
49072;BME280;74284;52.610;10.236;2024-03-29T12:10:38;99108.97;;;14.81;56.88
49072;BME280;74284;52.610;10.236;2024-03-29T12:13:07;99122.66;;;14.67;56.44
49072;BME280;74284;52.610;10.236;2024-03-29T12:15:33;99105.94;;;14.95;56.34
49072;BME280;74284;52.610;10.236;2024-03-29T12:18:03;99103.34;;;14.84;56.51
49072;BME280;74284;52.610;10.236;2024-03-29T12:20:30;99118.44;;;14.95;56.28
49072;BME280;74284;52.610;10.236;2024-03-29T12:22:55;99099.88;;;15.03;55.27
49072;BME280;74284;52.610;10.236;2024-03-29T12:25:21;99115.19;;;14.91;56.28
49072;BME280;74284;52.610;10.236;2024-03-29T12:27:47;99096.25;;;14.94;55.65
49072;BME280;74284;52.610;10.236;2024-03-29T12:30:13;99104.53;;;14.70;56.77
49072;BME280;74284;52.610;10.236;2024-03-29T12:32:39;99096.06;;;14.65;56.95
49072;BME280;74284;52.610;10.236;2024-03-29T12:35:13;99114.31;;;14.60;56.36
49072;BME280;74284;52.610;10.236;2024-03-29T12:37:47;99107.25;;;14.80;56.53
49072;BME280;74284;52.610;10.236;2024-03-29T12:40:13;99110.00;;;14.90;56.54
49072;BME280;74284;52.610;10.236;2024-03-29T12:42:43;99107.91;;;15.03;56.75
49072;BME280;74284;52.610;10.236;2024-03-29T12:45:09;99123.63;;;14.96;56.33
49072;BME280;74284;52.610;10.236;2024-03-29T12:47:36;99124.56;;;14.76;56.54
49072;BME280;74284;52.610;10.236;2024-03-29T12:50:02;99134.50;;;15.05;55.29
49072;BME280;74284;52.610;10.236;2024-03-29T12:52:36;99117.63;;;15.04;54.93